»·PEaware :: N251CV KSNA-KLAS

N251CV :: KSNA-KLAS

FLIGHT INFORMATION

Flight Status: Arrived
Operator: Privately registered:
United States
More flights under this callsign
Pilot: Matt W. (10744)
Aircraft: Unknown
(SF50)
More flights by this aircraft type
Origin: KSNA John Wayne-Orange Co
United States
Destination: KLAS McCarran Intl
United States
More flights between these airports :: More routes between these airports
Route: +MUSEL8 DAG MISEN KEPEC6
File this flight plan on PilotEdge
Remarks: first flight in this can
Altitude:
(Current/Filed)
23,000ft
Speed:
(Current/Filed)
300kts
Departed: 12-Oct-17 06:04 PM
Arrived: 12-Oct-17 07:02 PM
Distance/Time
Traveled:
197nm/0:58
Distance/Time
To Go:
Arrived

Flight Plot

Page will automatically refresh every two minutes.

Flight plan parsing failed; only flown route is shown


Map Options




Map Legend


Flown Route
Filed Route
Departure Airport
Arrival Airport
Navaid (VOR, NDB)
Fix

Horizontal Profiles

Position Reports

Time Latitude Longitude Heading Altitude Ground
Speed
12-Oct-17 17:34 33.676914 -117.872076 119 60ft 0kts
12-Oct-17 17:35 33.676914 -117.872076 119 60ft 0kts
12-Oct-17 17:36 33.676914 -117.872076 119 60ft 0kts
12-Oct-17 17:37 33.676914 -117.872076 119 60ft 0kts
12-Oct-17 17:38 33.676914 -117.872076 119 60ft 0kts
12-Oct-17 17:39 33.676914 -117.872076 119 60ft 0kts
12-Oct-17 17:40 33.676914 -117.872076 119 60ft 0kts
12-Oct-17 17:41 33.676914 -117.872076 119 60ft 0kts
12-Oct-17 17:42 33.676914 -117.872076 119 60ft 0kts
12-Oct-17 17:43 33.676914 -117.872076 119 60ft 0kts
12-Oct-17 17:44 33.676914 -117.872076 119 60ft 0kts
12-Oct-17 17:45 33.676914 -117.872076 119 60ft 0kts
12-Oct-17 17:46 33.676914 -117.872076 119 60ft 0kts
12-Oct-17 17:47 33.676914 -117.872076 119 60ft 0kts
12-Oct-17 17:48 33.676914 -117.872076 119 60ft 0kts
12-Oct-17 17:49 33.676914 -117.872076 119 60ft 0kts
12-Oct-17 17:50 33.676914 -117.872076 119 60ft 0kts
12-Oct-17 17:51 33.676914 -117.872076 119 60ft 0kts
12-Oct-17 17:52 33.676914 -117.872076 119 60ft 0kts
12-Oct-17 17:53 33.676914 -117.872076 119 60ft 0kts
12-Oct-17 17:54 33.676914 -117.872076 119 60ft 0kts
12-Oct-17 17:55 33.676914 -117.872076 119 60ft 0kts
12-Oct-17 17:56 33.676914 -117.872076 119 60ft 0kts
12-Oct-17 17:57 33.676914 -117.872076 119 60ft 0kts
12-Oct-17 17:58 33.676914 -117.872076 119 60ft 0kts
12-Oct-17 17:59 33.676914 -117.872076 119 60ft 0kts
12-Oct-17 18:00 33.676914 -117.872076 119 60ft 0kts
12-Oct-17 18:01 33.676913 -117.872073 120 60ft 0kts
12-Oct-17 18:02 33.676225 -117.869941 18 60ft 3kts
12-Oct-17 18:03 33.678648 -117.868465 30 60ft 16kts
12-Oct-17 18:04 33.681915 -117.866351 68 60ft 7kts
12-Oct-17 18:05 33.681923 -117.866009 98 60ft 0kts
12-Oct-17 18:06 33.681923 -117.866009 98 60ft 0kts
12-Oct-17 18:07 33.681923 -117.866009 98 60ft 0kts
12-Oct-17 18:08 33.681923 -117.866009 98 60ft 0kts
12-Oct-17 18:09 33.680239 -117.865954 207 60ft 53kts
12-Oct-17 18:10 33.652557 -117.880026 189 1633ft 146kts
12-Oct-17 18:11 33.603755 -117.888725 190 3763ft 207kts
12-Oct-17 18:12 33.573815 -117.935415 263 6739ft 197kts
12-Oct-17 18:13 33.565570 -118.003479 262 7903ft 185kts
12-Oct-17 18:14 33.559721 -118.053446 277 8098ft 140kts
12-Oct-17 18:15 33.600558 -118.068340 2 9960ft 190kts
12-Oct-17 18:16 33.652108 -118.064590 0 12243ft 193kts
12-Oct-17 18:17 33.702811 -118.060715 358 14365ft 192kts
12-Oct-17 18:17 33.744149 -118.057544 355 16276ft 176kts
12-Oct-17 18:19 33.806651 -118.033190 31 17026ft 265kts
12-Oct-17 18:20 33.851329 -117.992969 26 20024ft 190kts
12-Oct-17 18:21 33.899100 -117.950010 28 20965ft 231kts
12-Oct-17 18:21 33.944746 -117.908615 29 21812ft 254kts
12-Oct-17 18:23 34.011711 -117.847817 29 22988ft 277kts
12-Oct-17 18:24 34.077586 -117.787196 39 22977ft 318kts
12-Oct-17 18:24 34.126728 -117.721994 42 22973ft 308kts
12-Oct-17 18:26 34.191296 -117.634985 42 22963ft 301kts
12-Oct-17 18:26 34.237199 -117.572972 42 22958ft 299kts
12-Oct-17 18:27 34.291869 -117.498983 42 22985ft 305kts
12-Oct-17 18:28 34.348705 -117.421872 42 23014ft 310kts
12-Oct-17 18:29 34.405622 -117.344488 43 23035ft 312kts
12-Oct-17 18:30 34.463278 -117.265913 43 23017ft 313kts
12-Oct-17 18:31 34.521028 -117.187038 43 23020ft 313kts
12-Oct-17 18:32 34.578579 -117.108268 43 23034ft 313kts
12-Oct-17 18:33 34.636244 -117.029198 44 23021ft 315kts
12-Oct-17 18:34 34.694367 -116.949277 44 23007ft 317kts
12-Oct-17 18:35 34.752589 -116.869026 45 22993ft 319kts
12-Oct-17 18:36 34.811086 -116.788165 45 22994ft 320kts
12-Oct-17 18:37 34.869800 -116.706861 45 22995ft 320kts
12-Oct-17 18:38 34.928623 -116.625170 45 22996ft 321kts
12-Oct-17 18:39 34.989047 -116.545069 40 23003ft 322kts
12-Oct-17 18:40 35.048423 -116.471093 39 23017ft 323kts
12-Oct-17 18:41 35.108625 -116.396006 39 23024ft 324kts
12-Oct-17 18:42 35.166573 -116.323527 40 23013ft 324kts
12-Oct-17 18:43 35.215947 -116.261622 40 23013ft 323kts
12-Oct-17 18:44 35.278372 -116.183208 40 23015ft 323kts
12-Oct-17 18:45 35.340520 -116.104958 40 23016ft 323kts
12-Oct-17 18:46 35.402880 -116.026255 40 23017ft 323kts
12-Oct-17 18:47 35.465335 -115.947257 40 23018ft 323kts
12-Oct-17 18:48 35.521100 -115.876463 39 21890ft 296kts
12-Oct-17 18:49 35.586630 -115.793360 43 16237ft 333kts
12-Oct-17 18:50 35.645528 -115.718226 43 13660ft 268kts
12-Oct-17 18:51 35.667834 -115.689751 43 13160ft 239kts
12-Oct-17 18:52 35.692798 -115.657873 43 13011ft 222kts
12-Oct-17 18:53 35.735657 -115.603098 43 13010ft 223kts
12-Oct-17 18:54 35.788201 -115.574138 359 13038ft 213kts
12-Oct-17 18:55 35.850300 -115.570358 358 13040ft 233kts
12-Oct-17 18:56 35.916380 -115.566632 358 13023ft 241kts
12-Oct-17 18:57 35.976928 -115.542325 61 11981ft 275kts
12-Oct-17 18:58 36.004582 -115.458825 67 10993ft 238kts
12-Oct-17 18:59 36.027386 -115.386931 67 11010ft 226kts
12-Oct-17 19:00 36.026462 -115.311328 95 11006ft 239kts
12-Oct-17 19:01 36.020390 -115.228137 94 9061ft 228kts
12-Oct-17 19:02 36.021864 -115.161882 65 8213ft 198kts
12-Oct-17 19:03 36.042214 -115.090544 68 5449ft 219kts
12-Oct-17 19:04 36.070702 -115.090744 305 3277ft 175kts
12-Oct-17 19:05 36.073656 -115.131142 274 2145ft 68kts
12-Oct-17 19:06 36.074690 -115.145755 295 2145ft 16kts
12-Oct-17 19:07 36.075705 -115.146495 350 2145ft 20kts
12-Oct-17 19:08 36.078084 -115.144445 355 2145ft 8kts
12-Oct-17 19:09 36.083628 -115.141584 44 2145ft 23kts

Navigation Log

Ident Type
Flight plan parsing failed, navigation log unavailable